Home   Weather   Germany   Bonn   Past weeks
Flag for Germany

Past Weather in Bonn, North Rhine-Westphalia, Germany — Yesterday and Last 2 Weeks

Currently: 39 °F. Clear. (Weather station: Koeln / Bonn, Germany). See more current weather

Past Weather in Bonn — Graph

°F

Bonn Temperature Yesterday

Maximum temperature yesterday: 54 °F (at 1:20 pm)
Minimum temperature yesterday: 30 °F (at 5:50 am)
Average temperature yesterday: 45 °F

High & Low Weather Summary for the Past Weeks

 TemperatureHumidityPressure
High59 °F (Apr 9, 3:50 pm)100% (Apr 10, 1:50 am)30.51 "Hg (Apr 10, 1:50 am)
Low27 °F (Apr 13, 5:20 am)32% (Apr 15, 6:20 pm)29.71 "Hg (Apr 5, 9:50 am)
Average41 °F72%30.15 "Hg
* Reported Apr 3 2:20 am — Apr 18 2:20 am, Bonn. Weather by CustomWeather, © 2021

Note: Actual official high and low records may vary slightly from our data, if they occured in-between our weather recording intervals... More about our weather records

Bonn Weather History for the Previous 24 Hours

Scroll right to see more
 ConditionsComfort  
Time TempWeatherWind HumidityBarometerVisibility
2:20 am
Sun, Apr 18
41 °FClear.6 mph70%30.18 "Hg10 mi
1:50 am41 °FClear.5 mph70%30.18 "Hg10 mi
1:20 am41 °FClear.5 mph70%30.18 "Hg10 mi
12:50 am43 °FClear.3 mph66%30.18 "Hg10 mi
12:20 am43 °FClear.3 mph61%30.18 "Hg10 mi
11:50 pm
Sat, Apr 17
45 °FClear.2 mph57%30.18 "Hg10 mi
11:20 pm46 °FClear.1 mph53%30.18 "Hg10 mi
10:50 pm46 °FClear.No wind57%30.18 "Hg10 mi
10:20 pm46 °FClear.1 mph62%30.18 "Hg10 mi
9:50 pm48 °FClear.1 mph50%30.18 "Hg10 mi
9:20 pm48 °FClear.2 mph50%30.18 "Hg10 mi
8:50 pm48 °FClear.1 mph46%30.18 "Hg10 mi
8:20 pm50 °FSunny.2 mph43%30.18 "Hg10 mi
7:50 pm50 °FPassing clouds.3 mph43%30.18 "HgN/A
7:20 pm50 °FPassing clouds.5 mph43%30.18 "HgN/A
6:50 pm50 °FPassing clouds.5 mph43%30.18 "HgN/A
6:20 pm52 °FPassing clouds.8 mph41%30.18 "HgN/A
5:50 pm50 °FSunny.9 mph43%30.18 "Hg10 mi
5:20 pm50 °FSunny.9 mph43%30.21 "Hg10 mi
4:50 pm50 °FPassing clouds.10 mph47%30.21 "HgN/A
4:20 pm50 °FSunny.8 mph43%30.21 "Hg10 mi
3:50 pm50 °FPassing clouds.6 mph43%30.21 "HgN/A
3:20 pm50 °FLight rain. Scattered clouds.7 mph43%30.21 "HgN/A
2:50 pm52 °FPassing clouds.15 mph41%30.24 "HgN/A
2:20 pm52 °FSunny.12 mph41%30.24 "Hg10 mi
1:50 pm54 °FPassing clouds.13 mph38%30.24 "HgN/A
1:20 pm54 °FPassing clouds.14 mph41%30.24 "HgN/A
12:50 pm52 °FPassing clouds.13 mph41%30.24 "HgN/A
12:20 pm50 °FPassing clouds.12 mph43%30.24 "HgN/A
11:50 am50 °FPassing clouds.13 mph43%30.27 "HgN/A
11:20 am50 °FPassing clouds.13 mph43%30.27 "HgN/A
10:50 am48 °FPassing clouds.10 mph43%30.27 "HgN/A
10:20 am48 °FPassing clouds.10 mph46%30.27 "HgN/A
9:50 am48 °FPassing clouds.10 mph46%30.27 "HgN/A
9:20 am46 °FPassing clouds.8 mph50%30.27 "HgN/A
8:50 am43 °FSunny.5 mph57%30.27 "Hg10 mi
8:20 am37 °FSunny.1 mph75%30.27 "Hg10 mi
7:50 am36 °FSunny.2 mph75%30.27 "Hg10 mi
7:20 am34 °FSunny.1 mph81%30.27 "Hg10 mi
6:50 am34 °FSunny.1 mph81%30.27 "Hg10 mi
6:20 am34 °FPassing clouds.5 mph81%30.27 "HgN/A
5:50 am30 °FPassing clouds.5 mph86%30.27 "HgN/A
5:20 am39 °FClear.8 mph65%30.24 "Hg10 mi
4:50 am36 °FClear.2 mph75%30.27 "Hg10 mi
4:20 am36 °FClear.1 mph75%30.27 "Hg10 mi
3:50 am36 °FClear.1 mph81%30.27 "Hg10 mi
3:20 am37 °FClear.1 mph75%30.27 "Hg10 mi
Weather by CustomWeather, © 2021

See weather overview